< < Back
Terminal Aerodrome Forecast


Current Version              Previous Versions:   1  2  3  4  5  6  7  8  9  

Terminal Aerodrome Forecast

939
FTUS42 KTAE 280500
TAFDHN
TAF
KDHN 280520Z 2806/0106 03006KT P6SM SCT050 BKN200
     FM281300 06010KT P6SM SCT025 OVC050
     FM281700 06012KT P6SM VCSH OVC025
     FM010100 07010KT P6SM OVC015=



Latest METAR

932
SAUS70 KWBC 281600
MTRDHN
METAR KDHN 281553Z 09010KT 10SM SCT032 OVC044 11/04 A3050 RMK AO2 SLP328
T01060039


USA.gov is the U.S. government's official web portal to all federal, state and local government web resources and services.